Time;durP1;ratioP1;P1;durP2;ratioP2;P2;SDS_P1;SDS_P2;PMS_P1;PMS_P2;Temp;Humidity;BMP_temperature;BMP_pressure;BME280_temperature;BME280_humidity;BME280_pressure;Samples;Min_cycle;Max_cycle;Signal;HPM_P1;HPM_P2
2022/02/28 00:10:44;;;;;;;17.00;10.90;;;-0.30;72.60;;;;;;6144913;23;20337;-88
2022/02/28 00:24:59;;;;;;;15.67;10.03;;;-0.50;72.60;;;;;;6204285;23;20184;-87
2022/02/28 03:40:15;;;;;;;19.20;11.70;;;-1.20;85.50;;;;;;5947675;24;20184;-87
2022/02/28 04:22:55;;;;;;;19.53;11.77;;;-1.30;86.30;;;;;;5974895;24;20182;-88
2022/02/28 04:29:17;;;;;;;18.63;11.60;;;-1.40;86.70;;;;;;6024523;23;20257;-88
2022/02/28 04:51:56;;;;;;;15.97;10.70;;;-1.70;89.60;;;;;;6100895;23;20179;-87
2022/02/28 04:54:45;;;;;;;22.23;11.27;;;-1.60;88.90;;;;;;6178501;23;20242;-88
2022/02/28 04:57:15;;;;;;;22.77;11.97;;;-1.60;87.70;;;;;;6177354;23;20175;-87
2022/02/28 04:59:49;;;;;;;17.90;11.03;;;-1.60;87.90;;;;;;6175896;23;20210;-88
2022/02/28 05:07:49;;;;;;;19.67;10.43;;;-1.80;87.90;;;;;;6173512;23;20178;-88
2022/02/28 05:10:16;;;;;;;17.70;10.60;;;-1.90;87.40;;;;;;6151714;23;20205;-87
2022/02/28 05:12:43;;;;;;;18.17;10.83;;;-1.90;87.50;;;;;;6178662;23;20258;-88
2022/02/28 05:17:52;;;;;;;17.57;10.37;;;-1.90;86.70;;;;;;6126585;23;20185;-87
2022/02/28 05:20:19;;;;;;;17.60;10.33;;;-1.90;86.80;;;;;;6147446;23;20230;-88
2022/02/28 05:22:48;;;;;;;17.10;10.63;;;-1.90;86.20;;;;;;6173629;23;20185;-87
2022/02/28 05:25:15;;;;;;;15.83;9.43;;;-2.10;86.40;;;;;;6173546;23;20221;-88
2022/02/28 05:27:59;;;;;;;15.70;9.97;;;-2.20;86.80;;;;;;6175190;23;20220;-87
2022/02/28 05:30:27;;;;;;;18.83;11.33;;;-2.20;87.40;;;;;;6171972;23;20266;-87
2022/02/28 05:32:54;;;;;;;18.97;10.23;;;-2.20;87.40;;;;;;6149804;23;20192;-87
2022/02/28 05:35:21;;;;;;;18.57;10.57;;;-2.10;87.10;;;;;;6172467;23;20522;-87
2022/02/28 05:37:50;;;;;;;19.33;10.13;;;-2.10;86.80;;;;;;6172538;23;20236;-87
2022/02/28 05:40:17;;;;;;;15.27;9.77;;;-2.10;86.00;;;;;;6169553;23;20592;-87
2022/02/28 05:42:44;;;;;;;15.30;10.17;;;-2.10;85.60;;;;;;6172083;23;20565;-88
2022/02/28 05:45:12;;;;;;;19.30;10.70;;;-2.20;85.40;;;;;;6146052;23;20235;-87
2022/02/28 05:47:42;;;;;;;21.80;10.57;;;-2.00;90.60;;;;;;6118855;23;20176;-89
2022/02/28 05:50:10;;;;;;;17.57;10.37;;;-2.10;87.20;;;;;;6168589;23;20214;-88
2022/02/28 05:52:37;;;;;;;17.93;10.53;;;-2.30;87.40;;;;;;6172976;23;20181;-87
2022/02/28 05:57:57;;;;;;;16.70;10.10;;;-2.20;90.90;;;;;;6173087;23;20171;-87
2022/02/28 06:00:25;;;;;;;16.73;10.00;;;-1.70;90.80;;;;;;6174972;23;20573;-87
2022/02/28 06:02:52;;;;;;;23.27;10.60;;;-1.20;85.90;;;;;;6150155;23;20171;-87
2022/02/28 06:05:20;;;;;;;16.03;10.00;;;-1.20;82.30;;;;;;6147373;23;20210;-87
2022/02/28 06:52:28;;;;;;;18.50;9.80;;;-1.70;84.70;;;;;;6107947;23;20194;-89
2022/02/28 07:12:08;;;;;;;19.57;10.13;;;-1.30;85.00;;;;;;6116543;23;20211;-88
2022/02/28 07:14:53;;;;;;;15.53;10.40;;;-1.20;85.10;;;;;;6102866;23;20260;-87
2022/02/28 07:17:56;;;;;;;19.13;10.33;;;-1.10;85.10;;;;;;6140747;23;20191;-88
2022/02/28 07:20:38;;;;;;;16.30;9.97;;;-0.90;83.20;;;;;;6167592;23;20190;-88
2022/02/28 07:23:07;;;;;;;18.30;9.67;;;-0.60;82.20;;;;;;6177137;23;20182;-87
2022/02/28 07:26:05;;;;;;;16.13;9.10;;;-0.50;80.40;;;;;;6175335;23;20203;-88
2022/02/28 07:28:33;;;;;;;16.87;10.40;;;-0.30;78.60;;;;;;6168319;23;20203;-88
2022/02/28 07:38:01;;;;;;;15.93;9.80;;;-0.20;79.00;;;;;;6151643;23;20186;-89
2022/02/28 07:40:32;;;;;;;16.97;10.80;;;0.50;76.40;;;;;;6170416;23;20225;-89
2022/02/28 07:43:05;;;;;;;16.70;10.57;;;1.00;69.10;;;;;;6173677;23;20243;-89
2022/02/28 07:45:35;;;;;;;14.27;9.63;;;1.30;65.90;;;;;;6147513;23;20210;-88
2022/02/28 07:51:04;;;;;;;15.67;10.33;;;1.40;66.20;;;;;;6168358;23;20191;-88
2022/02/28 07:53:31;;;;;;;20.97;11.10;;;1.40;66.20;;;;;;6169731;23;20175;-88
2022/02/28 07:56:00;;;;;;;16.60;10.73;;;1.50;64.40;;;;;;6170423;23;20195;-87
2022/02/28 07:58:27;;;;;;;17.40;10.33;;;2.00;64.10;;;;;;6168291;23;20211;-88
2022/02/28 08:00:54;;;;;;;14.50;10.00;;;2.30;58.60;;;;;;6163890;23;20237;-88
2022/02/28 08:03:23;;;;;;;15.30;10.33;;;2.70;55.20;;;;;;6165618;23;20692;-88
2022/02/28 08:05:50;;;;;;;16.93;10.67;;;2.80;51.00;;;;;;6140256;23;20219;-88
2022/02/28 08:08:17;;;;;;;16.00;10.80;;;2.30;52.80;;;;;;6137770;23;20178;-89
2022/02/28 08:10:46;;;;;;;19.17;10.97;;;2.20;57.20;;;;;;6164814;23;20252;-87
2022/02/28 08:13:23;;;;;;;16.30;10.43;;;2.20;57.60;;;;;;6169619;23;20206;-87
2022/02/28 08:15:50;;;;;;;14.27;9.93;;;2.40;55.60;;;;;;6141142;23;20206;-88
2022/02/28 08:18:17;;;;;;;19.13;10.40;;;2.40;54.70;;;;;;6142604;23;20175;-87
2022/02/28 08:20:46;;;;;;;18.07;10.07;;;2.50;55.40;;;;;;6140291;23;20227;-87
2022/02/28 08:23:29;;;;;;;15.93;10.10;;;2.70;54.20;;;;;;6141985;23;20258;-86
2022/02/28 08:25:56;;;;;;;15.67;9.90;;;2.70;53.20;;;;;;6143301;23;20236;-88
2022/02/28 08:28:24;;;;;;;14.57;10.00;;;2.40;53.60;;;;;;6168727;23;20207;-85
2022/02/28 08:30:51;;;;;;;16.30;9.93;;;2.60;53.90;;;;;;6168817;23;20211;-86
2022/02/28 08:33:18;;;;;;;12.87;9.50;;;2.80;52.90;;;;;;6144320;23;20175;-84
2022/02/28 08:35:47;;;;;;;16.53;10.27;;;2.90;51.70;;;;;;6167064;23;20217;-86
2022/02/28 08:38:17;;;;;;;17.03;10.47;;;2.90;50.50;;;;;;6168122;23;20223;-85
2022/02/28 08:40:44;;;;;;;15.50;10.30;;;2.90;52.50;;;;;;6168122;23;20217;-87
2022/02/28 08:43:14;;;;;;;17.13;9.73;;;3.00;50.70;;;;;;6168058;23;20236;-88
2022/02/28 08:45:41;;;;;;;16.50;10.50;;;3.20;48.10;;;;;;6167248;23;20677;-89
2022/02/28 08:48:08;;;;;;;15.97;11.03;;;3.40;47.60;;;;;;6143482;23;20221;-87
2022/02/28 08:50:37;;;;;;;14.43;10.43;;;3.40;47.50;;;;;;6141799;23;20214;-86
2022/02/28 08:53:05;;;;;;;15.73;11.33;;;3.50;48.00;;;;;;6142762;23;20223;-85
2022/02/28 08:55:32;;;;;;;18.80;11.13;;;3.80;46.50;;;;;;6166306;23;20266;-85
2022/02/28 08:58:00;;;;;;;17.17;11.10;;;4.20;45.10;;;;;;6115296;23;20176;-86
2022/02/28 09:00:28;;;;;;;14.73;8.93;;;4.50;43.90;;;;;;6142398;23;20234;-86
2022/02/28 09:02:56;;;;;;;16.50;10.20;;;5.20;39.60;;;;;;6119619;23;20179;-86
2022/02/28 09:45:21;;;;;;;13.20;10.38;;;14.80;12.10;;;;;;5940892;24;20774;-90
2022/02/28 09:47:50;;;;;;;12.25;9.50;;;15.30;12.40;;;;;;5944515;23;20183;-90
2022/02/28 09:50:17;;;;;;;10.80;9.70;;;14.60;12.70;;;;;;6128807;23;20203;-88
2022/02/28 09:52:45;;;;;;;11.10;9.98;;;15.50;11.80;;;;;;6162453;23;20234;-88
2022/02/28 09:55:13;;;;;;;9.88;8.90;;;14.70;12.00;;;;;;6162969;23;20529;-88
2022/02/28 09:57:45;;;;;;;11.38;9.85;;;15.10;12.50;;;;;;6163361;23;20209;-87
2022/02/28 10:00:17;;;;;;;11.30;9.40;;;15.10;12.40;;;;;;6166577;23;20251;-86
2022/02/28 10:02:46;;;;;;;12.50;9.45;;;14.60;12.50;;;;;;6166539;23;20175;-88
2022/02/28 10:05:14;;;;;;;11.05;9.90;;;14.40;13.20;;;;;;6164970;23;20214;-85
2022/02/28 10:07:49;;;;;;;11.70;10.02;;;14.60;11.80;;;;;;6166983;23;20179;-87
2022/02/28 10:10:17;;;;;;;11.13;10.00;;;15.30;11.20;;;;;;6137115;23;20268;-91
2022/02/28 10:12:46;;;;;;;12.23;10.25;;;14.80;11.60;;;;;;6140924;23;20175;-88
2022/02/28 10:15:16;;;;;;;12.40;10.27;;;14.70;12.20;;;;;;6162364;23;20271;-90
2022/02/28 10:18:00;;;;;;;13.05;11.57;;;13.80;12.70;;;;;;6114361;23;20180;-91
2022/02/28 10:20:45;;;;;;;12.32;10.35;;;14.00;12.20;;;;;;6165267;23;20202;-89
2022/02/28 10:23:16;;;;;;;12.95;9.80;;;14.50;12.40;;;;;;6115777;23;20210;-89
2022/02/28 10:28:39;;;;;;;11.57;10.20;;;15.10;11.70;;;;;;6164168;23;20176;-91
2022/02/28 10:31:07;;;;;;;11.13;9.98;;;14.60;12.30;;;;;;6163257;23;20174;-88
2022/02/28 10:33:37;;;;;;;10.82;9.73;;;14.70;13.50;;;;;;6137468;23;20179;-89
2022/02/28 10:36:17;;;;;;;11.02;9.45;;;15.30;11.00;;;;;;6165251;23;20175;-88
2022/02/28 10:50:48;;;;;;;10.50;8.90;;;11.10;15.10;;;;;;6197346;23;20205;-88
2022/02/28 11:32:54;;;;;;;11.23;8.70;;;9.50;18.40;;;;;;6097147;23;20179;-88
2022/02/28 11:35:46;;;;;;;12.00;9.20;;;8.10;20.00;;;;;;6118314;23;20215;-88
2022/02/28 11:38:42;;;;;;;11.40;8.73;;;8.10;21.40;;;;;;6132069;23;20629;-87
2022/02/28 11:41:10;;;;;;;11.27;8.68;;;8.50;20.30;;;;;;6132953;23;20207;-88
2022/02/28 11:43:38;;;;;;;12.80;8.68;;;8.30;19.70;;;;;;6131426;23;20232;-86
2022/02/28 11:46:55;;;;;;;12.73;8.43;;;8.30;19.40;;;;;;6132135;23;20172;-87
2022/02/28 11:49:23;;;;;;;13.18;9.10;;;8.30;20.30;;;;;;6169402;23;20203;-87
2022/02/28 11:55:16;;;;;;;13.30;9.30;;;8.20;20.40;;;;;;6194182;23;20226;-88
2022/02/28 11:57:55;;;;;;;11.27;8.98;;;8.00;20.90;;;;;;6195411;23;20194;-87
2022/02/28 12:03:32;;;;;;;11.98;8.82;;;7.40;23.10;;;;;;6186800;23;20181;-87
2022/02/28 12:05:59;;;;;;;10.98;8.23;;;7.60;21.70;;;;;;6193277;23;20258;-87
2022/02/28 12:08:44;;;;;;;14.07;9.45;;;7.60;21.20;;;;;;6193595;23;20504;-87
2022/02/28 12:11:19;;;;;;;14.00;9.25;;;7.50;23.20;;;;;;6193213;23;20166;-89
2022/02/28 12:13:59;;;;;;;14.30;9.93;;;7.60;22.30;;;;;;6192749;23;20170;-88
2022/02/28 12:19:33;;;;;;;16.27;10.05;;;7.50;23.20;;;;;;6195973;23;20238;-88
2022/02/28 12:22:18;;;;;;;13.18;9.30;;;7.50;23.20;;;;;;6193555;23;20222;-88
2022/02/28 12:25:04;;;;;;;15.15;9.77;;;7.70;23.40;;;;;;6193295;23;20753;-88
2022/02/28 12:28:09;;;;;;;14.70;9.50;;;7.70;21.90;;;;;;6144180;23;20178;-87
2022/02/28 12:30:45;;;;;;;12.95;9.02;;;7.60;22.30;;;;;;6192939;23;20262;-88
2022/02/28 12:36:48;;;;;;;14.90;9.80;;;7.30;23.00;;;;;;6193605;23;20560;-87
2022/02/28 12:39:18;;;;;;;13.63;9.45;;;7.20;23.00;;;;;;6192997;23;20662;-88
2022/02/28 12:41:56;;;;;;;13.35;10.23;;;7.10;22.90;;;;;;6193156;23;20399;-88
2022/02/28 12:44:24;;;;;;;14.43;9.80;;;7.20;23.00;;;;;;6197644;23;20201;-87
2022/02/28 12:52:59;;;;;;;16.07;9.73;;;7.10;22.90;;;;;;6194450;23;20201;-88
2022/02/28 12:55:26;;;;;;;14.87;10.30;;;7.20;23.20;;;;;;6191049;23;20237;-86
2022/02/28 12:57:53;;;;;;;13.48;9.65;;;7.10;23.60;;;;;;6191342;23;20209;-90
2022/02/28 13:03:38;;;;;;;17.70;9.93;;;7.20;23.00;;;;;;6116353;23;20251;-88
2022/02/28 13:20:14;;;;;;;11.23;8.77;;;6.90;22.70;;;;;;6195451;23;20194;-87
2022/02/28 13:23:31;;;;;;;11.63;8.77;;;6.90;22.70;;;;;;6194340;23;20254;-87
2022/02/28 13:30:02;;;;;;;9.43;7.70;;;7.10;22.20;;;;;;6198937;23;20195;-87
2022/02/28 13:33:04;;;;;;;11.13;7.83;;;7.00;22.20;;;;;;6195633;23;20178;-85
2022/02/28 13:35:33;;;;;;;10.03;8.27;;;6.70;22.60;;;;;;6198663;23;20651;-83
2022/02/28 13:38:13;;;;;;;12.73;8.17;;;6.70;22.60;;;;;;6198449;23;20186;-81
2022/02/28 13:40:43;;;;;;;10.30;7.37;;;6.60;22.50;;;;;;6196603;23;20210;-85
2022/02/28 13:43:32;;;;;;;11.17;8.00;;;6.60;22.50;;;;;;6196382;23;20190;-86
2022/02/28 13:46:15;;;;;;;12.20;8.10;;;6.70;22.60;;;;;;6194301;23;20190;-85
2022/02/28 13:51:19;;;;;;;10.23;7.53;;;6.50;22.50;;;;;;6197243;23;20197;-85
2022/02/28 13:53:47;;;;;;;10.83;8.03;;;6.50;22.50;;;;;;6193987;23;20178;-85
2022/02/28 13:56:26;;;;;;;8.33;7.37;;;6.70;22.60;;;;;;6195379;23;20257;-85
2022/02/28 13:59:08;;;;;;;9.67;7.40;;;6.80;22.70;;;;;;6169120;23;20517;-87
2022/02/28 14:02:00;;;;;;;8.90;7.40;;;6.90;20.60;;;;;;6198501;23;20193;-87
2022/02/28 14:04:33;;;;;;;10.30;7.40;;;6.70;20.40;;;;;;6180172;23;20214;-88
2022/02/28 14:07:03;;;;;;;8.87;7.30;;;6.80;20.60;;;;;;6166345;23;20178;-86
2022/02/28 14:09:32;;;;;;;9.93;7.43;;;6.70;21.80;;;;;;6165454;23;20285;-88
2022/02/28 14:12:01;;;;;;;10.10;7.67;;;6.80;20.00;;;;;;6166559;23;20178;-88
2022/02/28 14:14:28;;;;;;;10.70;6.70;;;6.70;20.10;;;;;;6192891;23;20276;-90
2022/02/28 14:17:00;;;;;;;8.63;6.78;;;6.60;19.70;;;;;;6168785;23;20206;-89
2022/02/28 14:19:35;;;;;;;10.10;7.90;;;6.50;20.30;;;;;;6167251;23;20214;-89
2022/02/28 14:22:06;;;;;;;9.47;7.70;;;6.60;20.90;;;;;;6193366;23;20205;-90
2022/02/28 14:24:47;;;;;;;9.40;7.67;;;6.60;22.50;;;;;;6190648;23;20289;-90
2022/02/28 14:27:14;;;;;;;10.23;7.87;;;6.70;22.70;;;;;;6195506;23;20163;-87
2022/02/28 14:29:41;;;;;;;11.13;8.00;;;6.70;22.60;;;;;;6195586;23;20218;-87
2022/02/28 14:35:39;;;;;;;9.43;7.53;;;6.60;23.60;;;;;;6195703;23;20292;-88
2022/02/28 14:38:37;;;;;;;8.73;7.23;;;6.60;22.50;;;;;;6196846;23;20171;-88
2022/02/28 14:41:06;;;;;;;8.80;6.77;;;6.50;22.50;;;;;;6196319;23;20233;-88
2022/02/28 14:43:33;;;;;;;8.10;6.57;;;6.50;21.40;;;;;;6195002;23;20646;-87
2022/02/28 14:46:41;;;;;;;9.53;6.90;;;6.50;21.10;;;;;;6171985;23;20187;-87
2022/02/28 14:51:44;;;;;;;12.67;7.03;;;6.50;19.80;;;;;;6195572;23;20196;-84
2022/02/28 14:54:13;;;;;;;10.57;6.30;;;6.50;20.30;;;;;;6170769;23;20198;-83
2022/02/28 14:56:48;;;;;;;8.67;6.63;;;6.40;20.30;;;;;;6196268;23;20230;-85
2022/02/28 14:59:15;;;;;;;8.03;6.60;;;6.40;22.30;;;;;;6194961;23;20198;-84
2022/02/28 15:01:43;;;;;;;8.10;6.10;;;6.40;20.00;;;;;;6196601;23;20195;-85
2022/02/28 15:04:13;;;;;;;9.03;6.37;;;6.40;20.20;;;;;;6145939;23;20202;-85
2022/02/28 15:06:40;;;;;;;7.63;6.07;;;6.40;19.00;;;;;;6171669;23;20195;-85
2022/02/28 15:09:07;;;;;;;8.13;5.93;;;6.30;20.30;;;;;;6171034;23;20202;-86
2022/02/28 15:12:15;;;;;;;7.33;6.07;;;6.30;19.80;;;;;;6196961;23;20539;-86
2022/02/28 15:18:32;;;;;;;10.33;6.60;;;6.10;22.20;;;;;;6198607;23;20218;-84
2022/02/28 15:21:03;;;;;;;8.67;5.87;;;6.00;22.00;;;;;;6196755;23;20199;-84
2022/02/28 15:23:32;;;;;;;7.70;5.27;;;6.00;19.80;;;;;;6195805;23;20250;-83
2022/02/28 15:25:59;;;;;;;9.77;5.70;;;6.00;19.00;;;;;;6188863;23;20307;-84
2022/02/28 15:32:37;;;;;;;11.97;6.40;;;5.90;19.50;;;;;;6198724;23;20255;-85
2022/02/28 15:35:46;;;;;;;8.20;6.00;;;6.00;19.90;;;;;;6194517;23;20213;-84
2022/02/28 15:38:15;;;;;;;10.17;6.70;;;6.00;20.70;;;;;;6194725;23;20522;-83
2022/02/28 15:41:03;;;;;;;9.93;6.07;;;5.90;21.40;;;;;;6193457;23;20209;-85
2022/02/28 15:43:31;;;;;;;8.37;5.60;;;5.90;19.60;;;;;;6197064;23;20200;-85
2022/02/28 15:46:12;;;;;;;8.20;6.40;;;5.90;19.50;;;;;;6196504;23;20262;-86
2022/02/28 15:53:52;;;;;;;7.43;5.97;;;5.80;21.90;;;;;;6220799;23;20188;-84
2022/02/28 15:56:40;;;;;;;9.30;6.47;;;5.80;21.50;;;;;;6225338;23;20268;-89
2022/02/28 15:59:07;;;;;;;11.03;6.53;;;5.60;21.80;;;;;;6225491;23;20205;-83
2022/02/28 16:01:35;;;;;;;8.13;6.33;;;5.60;21.80;;;;;;6227602;23;20170;-83
2022/02/28 16:04:03;;;;;;;9.33;7.13;;;5.60;21.80;;;;;;6226071;23;20276;-86
2022/02/28 16:06:31;;;;;;;8.07;6.67;;;5.60;21.80;;;;;;6227018;23;20257;-86
2022/02/28 16:09:01;;;;;;;9.67;6.90;;;5.60;21.80;;;;;;6223915;23;20220;-86
2022/02/28 16:11:29;;;;;;;9.10;6.87;;;5.50;21.70;;;;;;6200220;23;20185;-85
2022/02/28 16:13:57;;;;;;;10.17;6.60;;;5.50;21.70;;;;;;6225911;23;20194;-85
2022/02/28 16:16:35;;;;;;;9.67;6.87;;;5.40;21.60;;;;;;6225938;23;20200;-86
2022/02/28 16:19:03;;;;;;;9.00;6.83;;;5.40;21.60;;;;;;6223707;23;20242;-85
2022/02/28 16:21:30;;;;;;;9.63;7.07;;;5.30;21.60;;;;;;6222452;23;20201;-89
2022/02/28 16:23:58;;;;;;;10.00;7.13;;;5.30;21.60;;;;;;6198635;23;20202;-87
2022/02/28 16:26:36;;;;;;;9.80;7.13;;;5.20;22.60;;;;;;6225410;23;20205;-83
2022/02/28 16:29:14;;;;;;;;;;;;;;;;;;;;;
2022/02/28 16:31:42;;;;;;;10.03;7.57;;;5.10;22.30;;;;;;6215137;23;20217;-85
2022/02/28 16:34:12;;;;;;;12.60;6.70;;;5.00;22.50;;;;;;6224001;23;20221;-90
2022/02/28 16:37:01;;;;;;;14.63;7.47;;;5.00;22.90;;;;;;6228179;23;20170;-85
2022/02/28 16:39:30;;;;;;;9.93;7.57;;;5.00;23.40;;;;;;6199753;23;20210;-90
2022/02/28 16:42:02;;;;;;;10.50;8.00;;;4.90;23.70;;;;;;6188409;23;20204;-91
2022/02/28 16:44:33;;;;;;;11.17;7.60;;;4.90;24.40;;;;;;6222773;23;20253;-89
2022/02/28 16:47:02;;;;;;;8.70;6.97;;;4.80;24.40;;;;;;6226328;23;20201;-86
2022/02/28 16:49:32;;;;;;;10.27;7.40;;;4.70;24.90;;;;;;6166918;23;20260;-89
2022/02/28 16:52:35;;;;;;;10.97;7.33;;;4.60;25.00;;;;;;6196339;23;20242;-88
2022/02/28 16:55:02;;;;;;;10.33;7.47;;;4.70;25.20;;;;;;6193393;23;20206;-88
2022/02/28 16:57:31;;;;;;;10.40;7.67;;;4.60;25.70;;;;;;6192102;23;20186;-88
2022/02/28 16:59:58;;;;;;;9.97;7.57;;;4.60;25.80;;;;;;6165424;23;20615;-89
2022/02/28 17:02:25;;;;;;;10.13;7.43;;;4.50;26.00;;;;;;6193772;23;20234;-88
2022/02/28 17:05:09;;;;;;;10.43;7.50;;;4.50;26.40;;;;;;6194530;23;20238;-88
2022/02/28 17:07:36;;;;;;;12.27;7.47;;;4.30;26.80;;;;;;6196880;23;20198;-86
2022/02/28 17:10:10;;;;;;;11.93;7.47;;;4.30;28.30;;;;;;6196995;23;20182;-86
2022/02/28 17:12:38;;;;;;;11.53;7.73;;;4.20;28.60;;;;;;6194135;23;20611;-86
2022/02/28 17:15:07;;;;;;;15.07;7.90;;;4.10;28.00;;;;;;6193923;23;20522;-85
2022/02/28 17:17:34;;;;;;;11.93;8.20;;;4.00;28.40;;;;;;6168088;23;20201;-89
2022/02/28 17:20:01;;;;;;;12.63;7.50;;;4.00;28.60;;;;;;6192494;23;20234;-85
2022/02/28 17:22:29;;;;;;;11.40;7.97;;;4.00;28.80;;;;;;6193587;23;20218;-86
2022/02/28 17:24:56;;;;;;;9.90;7.73;;;3.90;29.20;;;;;;6191738;23;20281;-87
2022/02/28 17:27:43;;;;;;;9.20;7.53;;;3.80;29.90;;;;;;6193129;23;20184;-85
2022/02/28 17:30:11;;;;;;;13.77;8.43;;;3.80;30.00;;;;;;6193341;23;20217;-86
2022/02/28 17:32:41;;;;;;;12.83;8.37;;;3.80;30.20;;;;;;6192990;23;20174;-85
2022/02/28 17:35:14;;;;;;;14.23;8.70;;;3.80;30.60;;;;;;6191428;23;20201;-87
2022/02/28 17:37:41;;;;;;;12.17;8.03;;;3.80;30.80;;;;;;6194921;23;20190;-85
2022/02/28 17:40:11;;;;;;;12.33;8.40;;;3.60;31.90;;;;;;6192569;23;20226;-85
2022/02/28 17:42:42;;;;;;;12.43;8.37;;;3.60;31.50;;;;;;6193191;23;20657;-84
2022/02/28 17:45:10;;;;;;;12.57;8.80;;;3.50;31.20;;;;;;6198226;23;20281;-87
2022/02/28 17:47:37;;;;;;;13.77;8.57;;;3.50;32.50;;;;;;6196616;23;20766;-89
2022/02/28 17:50:06;;;;;;;12.20;8.83;;;3.40;32.80;;;;;;6192644;23;20229;-88
2022/02/28 17:52:35;;;;;;;14.57;8.70;;;3.40;32.90;;;;;;6195300;23;20170;-87
2022/02/28 17:55:08;;;;;;;13.57;8.73;;;3.40;32.00;;;;;;6192548;23;20273;-89
2022/02/28 17:57:56;;;;;;;14.17;8.57;;;3.40;31.90;;;;;;6194270;23;20174;-89
2022/02/28 18:00:24;;;;;;;15.37;9.03;;;3.30;32.30;;;;;;6195766;23;20206;-88
2022/02/28 18:02:53;;;;;;;15.20;8.43;;;3.30;32.50;;;;;;6193556;23;20286;-90
2022/02/28 18:05:20;;;;;;;12.57;8.50;;;3.20;32.40;;;;;;6194971;23;20198;-90
2022/02/28 18:07:52;;;;;;;17.67;8.80;;;3.20;32.20;;;;;;6196843;23;20193;-93
2022/02/28 18:10:40;;;;;;;13.23;7.73;;;3.20;32.20;;;;;;6174863;23;20481;-93
2022/02/28 18:13:12;;;;;;;14.77;8.60;;;3.20;32.80;;;;;;6199545;23;20177;-91
2022/02/28 18:18:48;;;;;;;14.87;8.27;;;3.20;32.70;;;;;;6195359;23;20201;-93
2022/02/28 18:21:19;;;;;;;11.47;7.57;;;3.10;32.70;;;;;;6168911;23;20265;-90
2022/02/28 18:26:30;;;;;;;13.60;8.40;;;3.00;32.50;;;;;;6193685;23;20177;-88
2022/02/28 18:29:04;;;;;;;11.10;7.67;;;3.00;33.00;;;;;;6195537;23;20198;-88
2022/02/28 18:34:30;;;;;;;16.63;9.37;;;2.90;33.80;;;;;;6195965;23;20199;-91
2022/02/28 18:54:29;;;;;;;12.23;8.37;;;2.60;36.60;;;;;;6227760;23;20661;-92
2022/02/28 18:56:58;;;;;;;13.23;8.80;;;2.50;36.60;;;;;;6228400;23;20160;-92
2022/02/28 18:59:55;;;;;;;15.53;8.70;;;2.40;38.60;;;;;;6224781;23;20197;-88
2022/02/28 19:09:10;;;;;;;12.87;8.27;;;2.40;40.00;;;;;;6226280;23;20138;-88
2022/02/28 19:12:24;;;;;;;12.73;7.90;;;2.40;39.40;;;;;;6174958;23;20182;-87
2022/02/28 19:14:53;;;;;;;14.33;8.70;;;2.50;38.50;;;;;;6223375;23;20718;-89
2022/02/28 19:17:59;;;;;;;15.53;8.90;;;2.50;39.90;;;;;;6199877;23;20213;-86
2022/02/28 19:20:59;;;;;;;15.47;8.10;;;2.40;39.40;;;;;;6224726;23;20228;-87
2022/02/28 19:23:27;;;;;;;17.17;9.43;;;2.30;38.90;;;;;;6225453;23;20209;-85
2022/02/28 19:29:21;;;;;;;12.80;8.50;;;2.10;41.50;;;;;;6225699;23;20224;-86
2022/02/28 19:32:09;;;;;;;14.93;9.03;;;2.10;38.40;;;;;;6226284;23;20220;-86
2022/02/28 19:34:36;;;;;;;13.37;8.40;;;2.00;40.00;;;;;;6225325;23;20205;-86
2022/02/28 19:37:15;;;;;;;13.80;8.93;;;2.10;40.10;;;;;;6224845;23;20447;-86
2022/02/28 19:39:42;;;;;;;13.17;9.00;;;2.00;39.30;;;;;;6223854;23;20660;-85
2022/02/28 19:42:20;;;;;;;11.97;8.57;;;2.10;41.00;;;;;;6198720;23;20173;-86
2022/02/28 19:44:48;;;;;;;12.70;8.60;;;2.00;39.10;;;;;;6222809;23;20255;-86
2022/02/28 20:07:20;;;;;;;16.00;8.23;;;1.90;37.20;;;;;;6195022;23;20233;-85
2022/02/28 20:09:52;;;;;;;11.97;8.03;;;1.80;37.80;;;;;;6191183;23;20194;-85
2022/02/28 20:12:35;;;;;;;12.60;8.07;;;1.80;37.50;;;;;;6197864;23;20233;-86
2022/02/28 20:15:40;;;;;;;12.37;7.30;;;1.70;37.60;;;;;;6195802;23;20239;-86
2022/02/28 20:18:35;;;;;;;9.60;6.30;;;1.60;37.60;;;;;;6195578;23;20215;-85
2022/02/28 20:21:06;;;;;;;10.70;6.80;;;1.50;37.50;;;;;;6162619;23;20218;-85
2022/02/28 20:23:38;;;;;;;10.73;7.10;;;1.40;38.10;;;;;;6171027;23;20204;-86
2022/02/28 20:32:49;;;;;;;12.90;6.63;;;1.10;40.00;;;;;;6194132;23;20248;-85
2022/02/28 20:38:42;;;;;;;18.63;10.57;;;1.10;41.10;;;;;;6195461;23;20145;-86
2022/02/28 20:44:35;;;;;;;11.93;7.07;;;1.00;42.70;;;;;;6194148;23;20262;-85
2022/02/28 20:47:15;;;;;;;13.33;8.03;;;1.00;41.00;;;;;;6194677;23;20202;-86
2022/02/28 20:53:07;;;;;;;16.20;8.23;;;1.20;43.40;;;;;;6194036;23;20153;-85
2022/02/28 20:58:57;;;;;;;15.07;7.70;;;1.00;41.80;;;;;;6193464;23;20188;-81
2022/02/28 21:01:25;;;;;;;15.67;8.80;;;0.80;43.10;;;;;;6180233;23;20182;-79
2022/02/28 21:03:53;;;;;;;13.83;8.03;;;0.90;57.80;;;;;;6163297;23;20203;-91
2022/02/28 21:09:42;;;;;;;15.13;8.57;;;0.90;44.70;;;;;;6193133;23;20212;-85
2022/02/28 21:12:40;;;;;;;16.63;9.00;;;1.00;45.60;;;;;;6194716;23;20173;-86
2022/02/28 22:35:45;;;;;;;13.57;8.13;;;0.30;40.40;;;;;;6199447;23;20597;-84
2022/02/28 22:38:15;;;;;;;14.20;8.30;;;0.10;40.30;;;;;;6200678;23;20175;-87
2022/02/28 22:40:43;;;;;;;13.53;8.47;;;0.20;42.60;;;;;;6170172;23;20181;-87
2022/02/28 22:43:13;;;;;;;15.10;8.57;;;0.20;41.50;;;;;;6173997;23;20173;-85
2022/02/28 22:45:43;;;;;;;14.80;8.50;;;0.20;43.20;;;;;;6198441;23;20526;-85
